sensor_id;sensor_type;location;lat;lon;timestamp;P1;durP1;ratioP1;P2;durP2;ratioP2
21543;SDS011;10933;50.754;11.508;2023-06-01T00:00:45;3.47;;;3.17;;
21543;SDS011;10933;50.754;11.508;2023-06-01T00:03:11;4.23;;;3.93;;
21543;SDS011;10933;50.754;11.508;2023-06-01T00:05:38;3.70;;;3.50;;
21543;SDS011;10933;50.754;11.508;2023-06-01T00:08:04;5.28;;;3.17;;
21543;SDS011;10933;50.754;11.508;2023-06-01T00:10:30;4.07;;;3.77;;
21543;SDS011;10933;50.754;11.508;2023-06-01T00:12:57;3.50;;;3.23;;
21543;SDS011;10933;50.754;11.508;2023-06-01T00:15:23;3.20;;;3.00;;
21543;SDS011;10933;50.754;11.508;2023-06-01T00:17:50;3.78;;;3.15;;
21543;SDS011;10933;50.754;11.508;2023-06-01T00:20:16;3.00;;;2.80;;
21543;SDS011;10933;50.754;11.508;2023-06-01T00:22:43;6.30;;;3.42;;
21543;SDS011;10933;50.754;11.508;2023-06-01T00:25:09;3.13;;;2.92;;
21543;SDS011;10933;50.754;11.508;2023-06-01T00:27:35;4.00;;;3.70;;
21543;SDS011;10933;50.754;11.508;2023-06-01T00:30:02;4.27;;;3.97;;
21543;SDS011;10933;50.754;11.508;2023-06-01T00:32:28;4.10;;;3.80;;
21543;SDS011;10933;50.754;11.508;2023-06-01T00:34:55;3.47;;;3.27;;
21543;SDS011;10933;50.754;11.508;2023-06-01T00:37:21;3.60;;;3.40;;
21543;SDS011;10933;50.754;11.508;2023-06-01T00:39:47;3.47;;;3.27;;
21543;SDS011;10933;50.754;11.508;2023-06-01T00:42:13;3.93;;;3.70;;
21543;SDS011;10933;50.754;11.508;2023-06-01T00:44:39;3.00;;;2.80;;
21543;SDS011;10933;50.754;11.508;2023-06-01T00:47:05;6.90;;;3.50;;
21543;SDS011;10933;50.754;11.508;2023-06-01T00:49:32;3.63;;;3.43;;
21543;SDS011;10933;50.754;11.508;2023-06-01T00:51:59;3.30;;;3.10;;
21543;SDS011;10933;50.754;11.508;2023-06-01T00:54:26;3.10;;;2.90;;
21543;SDS011;10933;50.754;11.508;2023-06-01T00:56:53;7.40;;;3.53;;
21543;SDS011;10933;50.754;11.508;2023-06-01T00:59:19;3.53;;;3.33;;
21543;SDS011;10933;50.754;11.508;2023-06-01T01:01:45;3.33;;;3.13;;
21543;SDS011;10933;50.754;11.508;2023-06-01T01:04:11;2.90;;;2.70;;
21543;SDS011;10933;50.754;11.508;2023-06-01T01:12:02;3.20;;;3.00;;
21543;SDS011;10933;50.754;11.508;2023-06-01T01:14:37;2.83;;;2.63;;
21543;SDS011;10933;50.754;11.508;2023-06-01T01:20:10;2.80;;;2.60;;
21543;SDS011;10933;50.754;11.508;2023-06-01T01:31:06;3.40;;;2.60;;
21543;SDS011;10933;50.754;11.508;2023-06-01T01:33:37;3.37;;;2.33;;
21543;SDS011;10933;50.754;11.508;2023-06-01T01:36:06;3.60;;;2.87;;
21543;SDS011;10933;50.754;11.508;2023-06-01T01:38:34;3.03;;;2.83;;
21543;SDS011;10933;50.754;11.508;2023-06-01T01:41:01;2.20;;;2.10;;
21543;SDS011;10933;50.754;11.508;2023-06-01T01:43:27;3.23;;;2.37;;
21543;SDS011;10933;50.754;11.508;2023-06-01T01:45:57;2.90;;;2.70;;
21543;SDS011;10933;50.754;11.508;2023-06-01T01:49:07;2.87;;;2.70;;
21543;SDS011;10933;50.754;11.508;2023-06-01T01:52:10;2.50;;;2.37;;
21543;SDS011;10933;50.754;11.508;2023-06-01T01:54:44;3.00;;;2.80;;
21543;SDS011;10933;50.754;11.508;2023-06-01T01:57:12;3.20;;;3.00;;
21543;SDS011;10933;50.754;11.508;2023-06-01T01:59:39;3.33;;;3.03;;
21543;SDS011;10933;50.754;11.508;2023-06-01T02:02:10;3.17;;;2.93;;
21543;SDS011;10933;50.754;11.508;2023-06-01T02:04:40;2.80;;;2.60;;
21543;SDS011;10933;50.754;11.508;2023-06-01T02:07:07;3.27;;;3.07;;
21543;SDS011;10933;50.754;11.508;2023-06-01T02:09:34;2.93;;;2.73;;
21543;SDS011;10933;50.754;11.508;2023-06-01T02:12:01;3.47;;;3.17;;
21543;SDS011;10933;50.754;11.508;2023-06-01T02:14:27;3.40;;;3.20;;
21543;SDS011;10933;50.754;11.508;2023-06-01T02:16:54;3.00;;;2.80;;
21543;SDS011;10933;50.754;11.508;2023-06-01T02:19:20;2.90;;;2.70;;
21543;SDS011;10933;50.754;11.508;2023-06-01T02:21:46;3.73;;;3.53;;
21543;SDS011;10933;50.754;11.508;2023-06-01T02:24:13;3.43;;;3.23;;
21543;SDS011;10933;50.754;11.508;2023-06-01T02:26:39;3.53;;;3.27;;
21543;SDS011;10933;50.754;11.508;2023-06-01T02:29:05;4.07;;;3.30;;
21543;SDS011;10933;50.754;11.508;2023-06-01T02:31:32;4.20;;;3.90;;
21543;SDS011;10933;50.754;11.508;2023-06-01T02:33:58;5.03;;;4.63;;
21543;SDS011;10933;50.754;11.508;2023-06-01T02:36:26;3.23;;;3.03;;
21543;SDS011;10933;50.754;11.508;2023-06-01T02:38:54;3.03;;;2.83;;
21543;SDS011;10933;50.754;11.508;2023-06-01T02:41:20;4.80;;;3.90;;
21543;SDS011;10933;50.754;11.508;2023-06-01T02:43:47;3.23;;;3.00;;
21543;SDS011;10933;50.754;11.508;2023-06-01T02:46:15;3.80;;;3.60;;
21543;SDS011;10933;50.754;11.508;2023-06-01T02:48:42;3.27;;;3.07;;
21543;SDS011;10933;50.754;11.508;2023-06-01T02:51:09;3.97;;;3.57;;
21543;SDS011;10933;50.754;11.508;2023-06-01T02:53:35;3.63;;;3.33;;
21543;SDS011;10933;50.754;11.508;2023-06-01T02:56:03;3.70;;;3.50;;
21543;SDS011;10933;50.754;11.508;2023-06-01T02:58:30;4.63;;;4.33;;
21543;SDS011;10933;50.754;11.508;2023-06-01T03:00:56;4.97;;;4.67;;
21543;SDS011;10933;50.754;11.508;2023-06-01T03:03:23;6.33;;;4.97;;
21543;SDS011;10933;50.754;11.508;2023-06-01T03:05:50;4.10;;;3.90;;
21543;SDS011;10933;50.754;11.508;2023-06-01T03:08:16;4.50;;;4.20;;
21543;SDS011;10933;50.754;11.508;2023-06-01T03:10:43;3.90;;;3.70;;
21543;SDS011;10933;50.754;11.508;2023-06-01T03:13:10;4.40;;;4.10;;
21543;SDS011;10933;50.754;11.508;2023-06-01T03:15:36;3.97;;;3.77;;
21543;SDS011;10933;50.754;11.508;2023-06-01T03:18:03;3.67;;;3.47;;
21543;SDS011;10933;50.754;11.508;2023-06-01T03:20:30;3.83;;;3.63;;
21543;SDS011;10933;50.754;11.508;2023-06-01T03:22:57;3.70;;;3.50;;
21543;SDS011;10933;50.754;11.508;2023-06-01T03:25:23;3.47;;;3.27;;
21543;SDS011;10933;50.754;11.508;2023-06-01T03:27:50;3.70;;;3.50;;
21543;SDS011;10933;50.754;11.508;2023-06-01T03:30:16;5.00;;;3.37;;
21543;SDS011;10933;50.754;11.508;2023-06-01T03:32:43;3.57;;;3.37;;
21543;SDS011;10933;50.754;11.508;2023-06-01T03:35:10;4.20;;;3.90;;
21543;SDS011;10933;50.754;11.508;2023-06-01T03:37:38;4.67;;;4.37;;
21543;SDS011;10933;50.754;11.508;2023-06-01T03:40:06;5.13;;;4.00;;
21543;SDS011;10933;50.754;11.508;2023-06-01T03:42:43;4.40;;;4.00;;
21543;SDS011;10933;50.754;11.508;2023-06-01T03:45:12;5.37;;;4.87;;
21543;SDS011;10933;50.754;11.508;2023-06-01T03:47:39;9.23;;;7.07;;
21543;SDS011;10933;50.754;11.508;2023-06-01T03:50:06;7.63;;;7.13;;
21543;SDS011;10933;50.754;11.508;2023-06-01T03:52:34;7.73;;;7.23;;
21543;SDS011;10933;50.754;11.508;2023-06-01T03:55:01;7.27;;;6.67;;
21543;SDS011;10933;50.754;11.508;2023-06-01T03:57:38;7.67;;;7.07;;
21543;SDS011;10933;50.754;11.508;2023-06-01T04:00:05;7.33;;;6.77;;
21543;SDS011;10933;50.754;11.508;2023-06-01T04:02:47;6.83;;;6.43;;
21543;SDS011;10933;50.754;11.508;2023-06-01T04:05:21;7.50;;;6.60;;
21543;SDS011;10933;50.754;11.508;2023-06-01T04:07:50;6.20;;;5.87;;
21543;SDS011;10933;50.754;11.508;2023-06-01T04:10:18;7.13;;;6.63;;
21543;SDS011;10933;50.754;11.508;2023-06-01T04:12:44;6.13;;;5.73;;
21543;SDS011;10933;50.754;11.508;2023-06-01T04:15:13;5.03;;;4.72;;
21543;SDS011;10933;50.754;11.508;2023-06-01T04:17:41;5.68;;;5.10;;
21543;SDS011;10933;50.754;11.508;2023-06-01T04:20:14;5.88;;;5.47;;
21543;SDS011;10933;50.754;11.508;2023-06-01T04:22:41;6.28;;;5.85;;
21543;SDS011;10933;50.754;11.508;2023-06-01T04:25:10;6.65;;;6.25;;
21543;SDS011;10933;50.754;11.508;2023-06-01T04:27:37;5.72;;;5.32;;
21543;SDS011;10933;50.754;11.508;2023-06-01T04:30:10;5.60;;;5.20;;
21543;SDS011;10933;50.754;11.508;2023-06-01T04:32:38;4.55;;;4.22;;
21543;SDS011;10933;50.754;11.508;2023-06-01T04:35:05;4.50;;;4.18;;
21543;SDS011;10933;50.754;11.508;2023-06-01T04:37:41;5.70;;;4.07;;
21543;SDS011;10933;50.754;11.508;2023-06-01T04:40:08;5.88;;;4.63;;
21543;SDS011;10933;50.754;11.508;2023-06-01T04:42:36;7.95;;;4.65;;
21543;SDS011;10933;50.754;11.508;2023-06-01T04:45:05;5.40;;;4.90;;
21543;SDS011;10933;50.754;11.508;2023-06-01T04:47:33;5.38;;;4.97;;
21543;SDS011;10933;50.754;11.508;2023-06-01T04:50:09;4.95;;;4.65;;
21543;SDS011;10933;50.754;11.508;2023-06-01T04:52:40;4.40;;;4.10;;
21543;SDS011;10933;50.754;11.508;2023-06-01T04:55:07;4.53;;;4.13;;
21543;SDS011;10933;50.754;11.508;2023-06-01T04:57:34;4.47;;;4.18;;
21543;SDS011;10933;50.754;11.508;2023-06-01T05:00:02;3.58;;;3.33;;
21543;SDS011;10933;50.754;11.508;2023-06-01T05:02:31;3.92;;;3.63;;
21543;SDS011;10933;50.754;11.508;2023-06-01T05:04:58;3.58;;;3.38;;
21543;SDS011;10933;50.754;11.508;2023-06-01T05:07:24;3.50;;;3.30;;
21543;SDS011;10933;50.754;11.508;2023-06-01T05:09:50;3.97;;;3.72;;
21543;SDS011;10933;50.754;11.508;2023-06-01T05:12:16;3.33;;;3.13;;
21543;SDS011;10933;50.754;11.508;2023-06-01T05:14:43;3.50;;;3.30;;
21543;SDS011;10933;50.754;11.508;2023-06-01T05:17:09;3.42;;;3.22;;
21543;SDS011;10933;50.754;11.508;2023-06-01T05:19:35;3.85;;;3.65;;
21543;SDS011;10933;50.754;11.508;2023-06-01T05:22:01;3.35;;;3.10;;
21543;SDS011;10933;50.754;11.508;2023-06-01T05:24:27;3.22;;;3.03;;
21543;SDS011;10933;50.754;11.508;2023-06-01T05:26:54;3.60;;;3.30;;
21543;SDS011;10933;50.754;11.508;2023-06-01T05:29:20;3.78;;;3.58;;
21543;SDS011;10933;50.754;11.508;2023-06-01T05:31:46;3.47;;;3.28;;
21543;SDS011;10933;50.754;11.508;2023-06-01T05:34:13;3.90;;;3.70;;
21543;SDS011;10933;50.754;11.508;2023-06-01T05:36:39;3.30;;;3.10;;
21543;SDS011;10933;50.754;11.508;2023-06-01T05:39:06;4.05;;;3.80;;
21543;SDS011;10933;50.754;11.508;2023-06-01T05:41:32;4.00;;;3.80;;
21543;SDS011;10933;50.754;11.508;2023-06-01T05:43:58;6.13;;;4.85;;
21543;SDS011;10933;50.754;11.508;2023-06-01T05:46:24;3.90;;;3.60;;
21543;SDS011;10933;50.754;11.508;2023-06-01T05:48:50;4.50;;;4.20;;
21543;SDS011;10933;50.754;11.508;2023-06-01T05:51:17;5.40;;;4.00;;
21543;SDS011;10933;50.754;11.508;2023-06-01T05:53:43;3.70;;;3.50;;
21543;SDS011;10933;50.754;11.508;2023-06-01T05:56:09;4.03;;;3.75;;
21543;SDS011;10933;50.754;11.508;2023-06-01T05:58:35;3.65;;;3.35;;
21543;SDS011;10933;50.754;11.508;2023-06-01T06:01:01;3.58;;;3.38;;
21543;SDS011;10933;50.754;11.508;2023-06-01T06:03:28;4.60;;;3.83;;
21543;SDS011;10933;50.754;11.508;2023-06-01T06:05:55;4.05;;;3.78;;
21543;SDS011;10933;50.754;11.508;2023-06-01T06:08:21;3.80;;;3.50;;
21543;SDS011;10933;50.754;11.508;2023-06-01T06:10:47;4.18;;;3.97;;
21543;SDS011;10933;50.754;11.508;2023-06-01T06:13:14;3.92;;;3.65;;
21543;SDS011;10933;50.754;11.508;2023-06-01T06:15:40;3.72;;;3.53;;
21543;SDS011;10933;50.754;11.508;2023-06-01T06:18:06;4.05;;;3.85;;
21543;SDS011;10933;50.754;11.508;2023-06-01T06:20:32;3.85;;;3.55;;
21543;SDS011;10933;50.754;11.508;2023-06-01T06:22:58;3.55;;;3.35;;
21543;SDS011;10933;50.754;11.508;2023-06-01T06:25:24;3.10;;;2.90;;
21543;SDS011;10933;50.754;11.508;2023-06-01T06:27:51;3.72;;;3.53;;
21543;SDS011;10933;50.754;11.508;2023-06-01T06:30:17;3.33;;;3.13;;
21543;SDS011;10933;50.754;11.508;2023-06-01T06:32:43;2.97;;;2.78;;
21543;SDS011;10933;50.754;11.508;2023-06-01T06:35:09;2.97;;;2.78;;
21543;SDS011;10933;50.754;11.508;2023-06-01T06:37:38;2.53;;;2.33;;
21543;SDS011;10933;50.754;11.508;2023-06-01T06:40:05;2.42;;;2.33;;
21543;SDS011;10933;50.754;11.508;2023-06-01T06:42:32;2.60;;;2.45;;
21543;SDS011;10933;50.754;11.508;2023-06-01T06:44:58;2.50;;;2.30;;
21543;SDS011;10933;50.754;11.508;2023-06-01T06:47:24;2.35;;;2.25;;
21543;SDS011;10933;50.754;11.508;2023-06-01T06:49:50;2.40;;;2.20;;
21543;SDS011;10933;50.754;11.508;2023-06-01T06:52:17;2.50;;;2.40;;
21543;SDS011;10933;50.754;11.508;2023-06-01T06:54:44;2.47;;;2.38;;
21543;SDS011;10933;50.754;11.508;2023-06-01T06:57:10;2.65;;;2.45;;
21543;SDS011;10933;50.754;11.508;2023-06-01T06:59:37;2.42;;;2.22;;
21543;SDS011;10933;50.754;11.508;2023-06-01T07:02:03;2.20;;;2.10;;
21543;SDS011;10933;50.754;11.508;2023-06-01T07:04:30;2.30;;;2.20;;
21543;SDS011;10933;50.754;11.508;2023-06-01T07:06:56;2.40;;;2.20;;
21543;SDS011;10933;50.754;11.508;2023-06-01T07:09:22;4.57;;;1.98;;
21543;SDS011;10933;50.754;11.508;2023-06-01T07:11:48;2.08;;;1.98;;
21543;SDS011;10933;50.754;11.508;2023-06-01T07:14:15;3.03;;;2.10;;
21543;SDS011;10933;50.754;11.508;2023-06-01T07:16:41;4.47;;;2.40;;
21543;SDS011;10933;50.754;11.508;2023-06-01T07:19:07;2.22;;;2.13;;
21543;SDS011;10933;50.754;11.508;2023-06-01T07:21:34;2.58;;;2.38;;
21543;SDS011;10933;50.754;11.508;2023-06-01T07:24:01;2.65;;;2.45;;
21543;SDS011;10933;50.754;11.508;2023-06-01T07:26:28;2.30;;;2.13;;
21543;SDS011;10933;50.754;11.508;2023-06-01T07:28:55;2.10;;;2.00;;
21543;SDS011;10933;50.754;11.508;2023-06-01T07:31:22;3.38;;;2.10;;
21543;SDS011;10933;50.754;11.508;2023-06-01T07:33:48;1.75;;;1.65;;
21543;SDS011;10933;50.754;11.508;2023-06-01T07:36:17;2.10;;;2.00;;
21543;SDS011;10933;50.754;11.508;2023-06-01T07:38:44;2.10;;;2.00;;
21543;SDS011;10933;50.754;11.508;2023-06-01T07:41:10;1.90;;;1.80;;
21543;SDS011;10933;50.754;11.508;2023-06-01T07:43:37;2.00;;;1.90;;
21543;SDS011;10933;50.754;11.508;2023-06-01T07:46:03;1.98;;;1.88;;
21543;SDS011;10933;50.754;11.508;2023-06-01T07:48:29;1.65;;;1.55;;
21543;SDS011;10933;50.754;11.508;2023-06-01T07:51:01;2.03;;;1.92;;
21543;SDS011;10933;50.754;11.508;2023-06-01T07:53:27;2.20;;;1.90;;
21543;SDS011;10933;50.754;11.508;2023-06-01T07:55:54;1.90;;;1.75;;
21543;SDS011;10933;50.754;11.508;2023-06-01T07:58:20;1.77;;;1.67;;
21543;SDS011;10933;50.754;11.508;2023-06-01T08:00:46;1.70;;;1.60;;
21543;SDS011;10933;50.754;11.508;2023-06-01T08:03:13;1.90;;;1.80;;
21543;SDS011;10933;50.754;11.508;2023-06-01T08:05:40;1.63;;;1.52;;
21543;SDS011;10933;50.754;11.508;2023-06-01T08:08:09;1.15;;;1.15;;
21543;SDS011;10933;50.754;11.508;2023-06-01T08:10:36;1.88;;;1.45;;
21543;SDS011;10933;50.754;11.508;2023-06-01T08:13:04;1.73;;;1.50;;
21543;SDS011;10933;50.754;11.508;2023-06-01T08:15:32;1.30;;;1.20;;
21543;SDS011;10933;50.754;11.508;2023-06-01T08:18:02;1.88;;;1.70;;
21543;SDS011;10933;50.754;11.508;2023-06-01T08:20:28;1.40;;;1.30;;
21543;SDS011;10933;50.754;11.508;2023-06-01T08:22:54;1.48;;;1.38;;
21543;SDS011;10933;50.754;11.508;2023-06-01T08:25:21;1.70;;;1.60;;
21543;SDS011;10933;50.754;11.508;2023-06-01T08:27:48;2.67;;;1.63;;
21543;SDS011;10933;50.754;11.508;2023-06-01T08:30:14;1.45;;;1.35;;
21543;SDS011;10933;50.754;11.508;2023-06-01T08:32:41;1.60;;;1.50;;
21543;SDS011;10933;50.754;11.508;2023-06-01T08:35:08;1.60;;;1.50;;
21543;SDS011;10933;50.754;11.508;2023-06-01T08:37:34;1.50;;;1.40;;
21543;SDS011;10933;50.754;11.508;2023-06-01T08:40:01;1.10;;;1.10;;
21543;SDS011;10933;50.754;11.508;2023-06-01T08:42:34;1.42;;;1.33;;
21543;SDS011;10933;50.754;11.508;2023-06-01T08:45:07;1.13;;;1.02;;
21543;SDS011;10933;50.754;11.508;2023-06-01T08:47:35;1.65;;;1.55;;
21543;SDS011;10933;50.754;11.508;2023-06-01T08:50:03;1.40;;;1.30;;
21543;SDS011;10933;50.754;11.508;2023-06-01T08:52:29;1.52;;;1.42;;
21543;SDS011;10933;50.754;11.508;2023-06-01T08:54:59;2.47;;;1.38;;
21543;SDS011;10933;50.754;11.508;2023-06-01T08:57:28;1.38;;;1.27;;
21543;SDS011;10933;50.754;11.508;2023-06-01T08:59:58;1.20;;;1.10;;
21543;SDS011;10933;50.754;11.508;2023-06-01T09:02:25;2.35;;;1.38;;
21543;SDS011;10933;50.754;11.508;2023-06-01T09:04:52;1.52;;;1.42;;
21543;SDS011;10933;50.754;11.508;2023-06-01T09:07:18;1.50;;;1.40;;
21543;SDS011;10933;50.754;11.508;2023-06-01T09:09:45;1.55;;;1.45;;
21543;SDS011;10933;50.754;11.508;2023-06-01T09:12:17;1.42;;;1.30;;
21543;SDS011;10933;50.754;11.508;2023-06-01T09:14:48;1.67;;;1.58;;
21543;SDS011;10933;50.754;11.508;2023-06-01T09:17:20;1.75;;;1.65;;
21543;SDS011;10933;50.754;11.508;2023-06-01T09:19:47;1.15;;;1.05;;
21543;SDS011;10933;50.754;11.508;2023-06-01T09:22:15;1.55;;;1.45;;
21543;SDS011;10933;50.754;11.508;2023-06-01T09:24:41;1.58;;;1.40;;
21543;SDS011;10933;50.754;11.508;2023-06-01T09:27:24;2.75;;;1.10;;
21543;SDS011;10933;50.754;11.508;2023-06-01T09:29:55;1.30;;;1.20;;
21543;SDS011;10933;50.754;11.508;2023-06-01T09:32:24;1.25;;;1.15;;
21543;SDS011;10933;50.754;11.508;2023-06-01T09:34:50;2.75;;;1.00;;
21543;SDS011;10933;50.754;11.508;2023-06-01T09:37:16;0.90;;;0.85;;
21543;SDS011;10933;50.754;11.508;2023-06-01T09:39:43;0.90;;;0.82;;
21543;SDS011;10933;50.754;11.508;2023-06-01T09:42:10;0.80;;;0.77;;
21543;SDS011;10933;50.754;11.508;2023-06-01T09:44:37;1.42;;;1.10;;
21543;SDS011;10933;50.754;11.508;2023-06-01T09:47:06;0.80;;;0.80;;
21543;SDS011;10933;50.754;11.508;2023-06-01T09:49:43;1.48;;;1.00;;
21543;SDS011;10933;50.754;11.508;2023-06-01T09:52:14;0.75;;;0.70;;
21543;SDS011;10933;50.754;11.508;2023-06-01T09:54:45;3.17;;;0.95;;
21543;SDS011;10933;50.754;11.508;2023-06-01T09:57:19;0.80;;;0.80;;
21543;SDS011;10933;50.754;11.508;2023-06-01T09:59:48;1.23;;;0.93;;
21543;SDS011;10933;50.754;11.508;2023-06-01T10:02:15;0.95;;;0.90;;
21543;SDS011;10933;50.754;11.508;2023-06-01T10:04:49;1.00;;;0.90;;
21543;SDS011;10933;50.754;11.508;2023-06-01T10:07:23;1.35;;;0.80;;
21543;SDS011;10933;50.754;11.508;2023-06-01T10:09:54;1.10;;;0.90;;
21543;SDS011;10933;50.754;11.508;2023-06-01T10:12:23;0.85;;;0.80;;
21543;SDS011;10933;50.754;11.508;2023-06-01T10:14:51;1.30;;;0.80;;
21543;SDS011;10933;50.754;11.508;2023-06-01T10:17:20;0.85;;;0.80;;
21543;SDS011;10933;50.754;11.508;2023-06-01T10:19:47;0.82;;;0.70;;
21543;SDS011;10933;50.754;11.508;2023-06-01T10:22:14;1.23;;;0.80;;
21543;SDS011;10933;50.754;11.508;2023-06-01T10:24:41;2.70;;;0.80;;
21543;SDS011;10933;50.754;11.508;2023-06-01T10:30:13;0.98;;;0.85;;
21543;SDS011;10933;50.754;11.508;2023-06-01T10:35:09;1.25;;;1.10;;
21543;SDS011;10933;50.754;11.508;2023-06-01T10:43:06;0.98;;;0.73;;
21543;SDS011;10933;50.754;11.508;2023-06-01T10:48:09;0.95;;;0.85;;
21543;SDS011;10933;50.754;11.508;2023-06-01T10:50:37;2.90;;;0.80;;
21543;SDS011;10933;50.754;11.508;2023-06-01T10:53:25;1.23;;;0.80;;
21543;SDS011;10933;50.754;11.508;2023-06-01T11:01:35;3.20;;;1.40;;
21543;SDS011;10933;50.754;11.508;2023-06-01T11:04:03;0.85;;;0.75;;
21543;SDS011;10933;50.754;11.508;2023-06-01T11:06:37;0.70;;;0.70;;
21543;SDS011;10933;50.754;11.508;2023-06-01T11:09:05;12.70;;;1.13;;
21543;SDS011;10933;50.754;11.508;2023-06-01T11:14:30;0.85;;;0.82;;
21543;SDS011;10933;50.754;11.508;2023-06-01T11:17:24;1.23;;;1.13;;
21543;SDS011;10933;50.754;11.508;2023-06-01T11:19:56;0.60;;;0.60;;
21543;SDS011;10933;50.754;11.508;2023-06-01T11:22:23;0.70;;;0.60;;
21543;SDS011;10933;50.754;11.508;2023-06-01T11:24:51;1.00;;;0.90;;
21543;SDS011;10933;50.754;11.508;2023-06-01T11:27:18;1.10;;;0.90;;
21543;SDS011;10933;50.754;11.508;2023-06-01T11:29:48;0.70;;;0.70;;
21543;SDS011;10933;50.754;11.508;2023-06-01T11:32:14;1.08;;;0.90;;
21543;SDS011;10933;50.754;11.508;2023-06-01T11:34:45;0.63;;;0.63;;
21543;SDS011;10933;50.754;11.508;2023-06-01T11:37:17;0.85;;;0.70;;
21543;SDS011;10933;50.754;11.508;2023-06-01T11:39:44;3.00;;;0.90;;
21543;SDS011;10933;50.754;11.508;2023-06-01T11:42:15;1.35;;;0.80;;
21543;SDS011;10933;50.754;11.508;2023-06-01T11:44:44;2.25;;;0.60;;
21543;SDS011;10933;50.754;11.508;2023-06-01T11:47:20;0.98;;;0.80;;
21543;SDS011;10933;50.754;11.508;2023-06-01T11:49:47;1.00;;;0.57;;
21543;SDS011;10933;50.754;11.508;2023-06-01T11:52:15;0.80;;;0.70;;
21543;SDS011;10933;50.754;11.508;2023-06-01T11:54:43;0.82;;;0.80;;
21543;SDS011;10933;50.754;11.508;2023-06-01T11:57:09;1.65;;;0.60;;
21543;SDS011;10933;50.754;11.508;2023-06-01T11:59:46;8.57;;;1.15;;
21543;SDS011;10933;50.754;11.508;2023-06-01T12:04:43;0.70;;;0.70;;
21543;SDS011;10933;50.754;11.508;2023-06-01T12:07:20;0.80;;;0.80;;
21543;SDS011;10933;50.754;11.508;2023-06-01T12:09:46;0.80;;;0.80;;
21543;SDS011;10933;50.754;11.508;2023-06-01T12:12:13;0.90;;;0.70;;
21543;SDS011;10933;50.754;11.508;2023-06-01T12:14:39;1.48;;;0.90;;
21543;SDS011;10933;50.754;11.508;2023-06-01T12:17:05;3.83;;;0.93;;
21543;SDS011;10933;50.754;11.508;2023-06-01T12:19:32;1.23;;;0.85;;
21543;SDS011;10933;50.754;11.508;2023-06-01T12:21:59;1.00;;;0.90;;
21543;SDS011;10933;50.754;11.508;2023-06-01T12:24:26;0.70;;;0.70;;
21543;SDS011;10933;50.754;11.508;2023-06-01T12:26:58;1.20;;;0.70;;
21543;SDS011;10933;50.754;11.508;2023-06-01T12:32:02;3.17;;;0.82;;
21543;SDS011;10933;50.754;11.508;2023-06-01T12:34:28;0.80;;;0.70;;
21543;SDS011;10933;50.754;11.508;2023-06-01T12:36:58;0.80;;;0.75;;
21543;SDS011;10933;50.754;11.508;2023-06-01T12:39:34;0.98;;;0.70;;
21543;SDS011;10933;50.754;11.508;2023-06-01T12:42:05;0.80;;;0.80;;
21543;SDS011;10933;50.754;11.508;2023-06-01T12:44:31;1.23;;;0.75;;
21543;SDS011;10933;50.754;11.508;2023-06-01T12:46:58;1.00;;;0.90;;
21543;SDS011;10933;50.754;11.508;2023-06-01T12:49:26;1.88;;;1.10;;
21543;SDS011;10933;50.754;11.508;2023-06-01T12:51:53;0.98;;;0.93;;
21543;SDS011;10933;50.754;11.508;2023-06-01T12:54:20;3.30;;;0.90;;
21543;SDS011;10933;50.754;11.508;2023-06-01T12:56:49;1.08;;;0.98;;
21543;SDS011;10933;50.754;11.508;2023-06-01T12:59:16;0.90;;;0.90;;
21543;SDS011;10933;50.754;11.508;2023-06-01T13:01:43;1.23;;;1.13;;
21543;SDS011;10933;50.754;11.508;2023-06-01T13:04:09;1.20;;;1.10;;
21543;SDS011;10933;50.754;11.508;2023-06-01T13:06:36;1.13;;;1.02;;
21543;SDS011;10933;50.754;11.508;2023-06-01T13:09:03;1.35;;;1.25;;
21543;SDS011;10933;50.754;11.508;2023-06-01T13:11:32;1.23;;;1.20;;
21543;SDS011;10933;50.754;11.508;2023-06-01T13:13:59;1.63;;;1.45;;
21543;SDS011;10933;50.754;11.508;2023-06-01T13:16:25;3.63;;;1.60;;
21543;SDS011;10933;50.754;11.508;2023-06-01T13:18:52;2.38;;;1.85;;
21543;SDS011;10933;50.754;11.508;2023-06-01T13:21:18;1.70;;;1.60;;
21543;SDS011;10933;50.754;11.508;2023-06-01T13:23:44;1.90;;;1.80;;
21543;SDS011;10933;50.754;11.508;2023-06-01T13:26:11;2.83;;;1.73;;
21543;SDS011;10933;50.754;11.508;2023-06-01T13:28:37;1.90;;;1.80;;
21543;SDS011;10933;50.754;11.508;2023-06-01T13:31:03;1.65;;;1.55;;
21543;SDS011;10933;50.754;11.508;2023-06-01T13:33:30;2.25;;;2.15;;
21543;SDS011;10933;50.754;11.508;2023-06-01T13:35:57;2.30;;;2.15;;
21543;SDS011;10933;50.754;11.508;2023-06-01T13:38:23;2.20;;;2.10;;
21543;SDS011;10933;50.754;11.508;2023-06-01T13:40:50;2.15;;;2.05;;
21543;SDS011;10933;50.754;11.508;2023-06-01T13:43:16;3.50;;;3.10;;
21543;SDS011;10933;50.754;11.508;2023-06-01T13:45:43;2.90;;;2.70;;
21543;SDS011;10933;50.754;11.508;2023-06-01T13:48:09;2.78;;;2.38;;
21543;SDS011;10933;50.754;11.508;2023-06-01T13:50:35;2.90;;;2.63;;
21543;SDS011;10933;50.754;11.508;2023-06-01T13:53:02;2.70;;;2.53;;
21543;SDS011;10933;50.754;11.508;2023-06-01T13:55:30;7.63;;;2.95;;
21543;SDS011;10933;50.754;11.508;2023-06-01T13:57:56;2.58;;;2.38;;
21543;SDS011;10933;50.754;11.508;2023-06-01T14:00:23;3.20;;;3.00;;
21543;SDS011;10933;50.754;11.508;2023-06-01T14:02:49;3.17;;;2.97;;
21543;SDS011;10933;50.754;11.508;2023-06-01T14:05:15;3.10;;;2.90;;
21543;SDS011;10933;50.754;11.508;2023-06-01T14:07:42;2.85;;;2.65;;
21543;SDS011;10933;50.754;11.508;2023-06-01T14:10:08;3.10;;;2.83;;
21543;SDS011;10933;50.754;11.508;2023-06-01T14:12:36;3.42;;;3.22;;
21543;SDS011;10933;50.754;11.508;2023-06-01T14:15:02;3.00;;;2.80;;
21543;SDS011;10933;50.754;11.508;2023-06-01T14:17:28;3.00;;;2.80;;
21543;SDS011;10933;50.754;11.508;2023-06-01T14:19:54;3.17;;;2.97;;
21543;SDS011;10933;50.754;11.508;2023-06-01T14:22:21;3.13;;;2.92;;
21543;SDS011;10933;50.754;11.508;2023-06-01T14:24:47;3.00;;;2.80;;
21543;SDS011;10933;50.754;11.508;2023-06-01T14:27:13;3.17;;;2.97;;
21543;SDS011;10933;50.754;11.508;2023-06-01T14:29:40;2.97;;;2.78;;
21543;SDS011;10933;50.754;11.508;2023-06-01T14:32:06;3.67;;;3.08;;
21543;SDS011;10933;50.754;11.508;2023-06-01T14:34:33;3.20;;;3.00;;
21543;SDS011;10933;50.754;11.508;2023-06-01T14:36:59;3.35;;;3.05;;
21543;SDS011;10933;50.754;11.508;2023-06-01T14:39:25;3.17;;;2.33;;
21543;SDS011;10933;50.754;11.508;2023-06-01T14:41:51;2.50;;;2.38;;
21543;SDS011;10933;50.754;11.508;2023-06-01T14:44:17;2.20;;;2.10;;
21543;SDS011;10933;50.754;11.508;2023-06-01T14:46:43;2.90;;;2.70;;
21543;SDS011;10933;50.754;11.508;2023-06-01T14:49:10;2.95;;;2.75;;
21543;SDS011;10933;50.754;11.508;2023-06-01T14:51:36;2.58;;;2.47;;
21543;SDS011;10933;50.754;11.508;2023-06-01T14:54:02;2.75;;;2.55;;
21543;SDS011;10933;50.754;11.508;2023-06-01T14:56:28;3.00;;;2.80;;
21543;SDS011;10933;50.754;11.508;2023-06-01T14:58:55;4.13;;;2.60;;
21543;SDS011;10933;50.754;11.508;2023-06-01T15:01:21;3.65;;;3.35;;
21543;SDS011;10933;50.754;11.508;2023-06-01T15:03:49;3.13;;;2.92;;
21543;SDS011;10933;50.754;11.508;2023-06-01T15:06:15;2.95;;;2.75;;
21543;SDS011;10933;50.754;11.508;2023-06-01T15:08:41;2.92;;;2.83;;
21543;SDS011;10933;50.754;11.508;2023-06-01T15:11:07;2.95;;;2.75;;
21543;SDS011;10933;50.754;11.508;2023-06-01T15:13:33;2.97;;;2.78;;
21543;SDS011;10933;50.754;11.508;2023-06-01T15:15:59;2.95;;;2.75;;
21543;SDS011;10933;50.754;11.508;2023-06-01T15:18:25;3.13;;;2.92;;
21543;SDS011;10933;50.754;11.508;2023-06-01T15:20:52;2.95;;;2.75;;